Meath Environmental Platform

Observations

Time Sensor AQI SAQ Temp °C Hum % Pres Pa CO μg/m³ H₂S μg/m³ NO μg/m³ NO₂ μg/m³ O₃ μg/m³ SO₂ μg/m³ CO₂e PPM VOC PPM PM1 μg/m³ PM2.5 μg/m³ PM4 μg/m³ PM10 μg/m³ TPS µm
Tuesday 11 August 2026
22:31 Trim Patrick St 3 21.9 52 69,161 0 12.73 1.26 32 43.39 5.96 3.71 10.1 11.12
22:30 Trim Patrick St 3 21.9 50 69,151 0 12.47 1.3 26.09 47.62 6.19 4.57 10.96 12.06
22:28 Trim Patrick St 3 22 51 69,153 0 12.71 1.3 23.28 37.53 5.93 5.43 10.89 11.98
22:26 Trim Patrick St 3 22 52 69,143 0 15.59 1.27 35.09 50 6.95 5.43 11.62 12.78
22:25 Trim Patrick St 3 22.1 52 69,128 0 13.81 1.3 26.74 46.21 6.94 5.43 10.86 11.95
22:24 Trim Patrick St 3 22.1 49 69,138 0 14.03 1.38 42.55 44.14 6.32 6.29 10.29 11.32
22:23 Trim Patrick St 3 22.1 50 69,122 0 12.7 1.31 20.64 43.51 6.67 5.43 11.73 12.9
22:22 Trim Market St 2 23 48 61,605 0 0 1.27 27.08 52.73 0 2.14 4.6 5.26
22:22 Trim Patrick St 3 22.1 50 69,130 0 14.5 1.35 29.94 46.49 6.73 4.57 10.24 11.27
22:21 Trim Market St 3 23 48 61,678 0 0 1.28 19.68 57.5 0 1.43 4.09 6.77
22:21 Trim Patrick St 3 22.1 50 69,143 0 14.63 1.33 34.88 46.83 6.62 3.71 9.45 10.39
22:20 Trim Market St 3 23 48 61,656 0 1.82 1.3 23.35 55.94 0 2.14 4.61 5.25
22:20 Trim Patrick St 3 22.2 51 69,126 0 14.74 1.28 35.18 44.23 6.92 4.57 10.14 11.16
22:19 Trim Market St 2 23 48 61,786 0 1.37 1.29 35.64 49.6 0 2.14 5.13 6.01
22:19 Trim Patrick St 3 22.2 51 69,136 0 15.08 1.27 26.19 43.69 6.79 4.57 10.15 11.16
22:18 Trim Market St 3 23.1 48 61,970 0 0 1.26 23.31 50.03 0 2.14 4.09 5.25
22:18 Trim Patrick St 3 22.2 51 69,151 0 16.67 1.31 35.56 44.49 7.26 6.29 11.7 12.87
22:17 Trim Market St 3 23.1 48 61,962 0 1.66 1.26 28.12 56.53 0 2.14 4.61 5.25
22:17 Trim Patrick St 3 22.2 50 69,167 0 16.85 1.34 37.57 51.65 8.15 5.43 11.76 12.93
22:16 Trim Market St 3 23.1 48 61,992 0 0 1.27 12.04 54.56 0 2.85 5.14 6.01